sensor_id;sensor_type;location;lat;lon;timestamp;pressure;altitude;pressure_sealevel;temperature;humidity
20037;BME280;10179;42.640;23.312;2023-10-09T00:01:01;94192.94;;;21.95;40.40
20037;BME280;10179;42.640;23.312;2023-10-09T00:03:30;94188.16;;;21.92;40.57
20037;BME280;10179;42.640;23.312;2023-10-09T00:05:55;94194.59;;;21.91;40.54
20037;BME280;10179;42.640;23.312;2023-10-09T00:08:21;94152.53;;;21.67;40.37
20037;BME280;10179;42.640;23.312;2023-10-09T00:10:50;94198.38;;;21.85;40.37
20037;BME280;10179;42.640;23.312;2023-10-09T00:13:23;94199.72;;;21.82;40.63
20037;BME280;10179;42.640;23.312;2023-10-09T00:16:04;94201.09;;;21.80;40.40
20037;BME280;10179;42.640;23.312;2023-10-09T00:18:38;94161.19;;;21.54;40.64
20037;BME280;10179;42.640;23.312;2023-10-09T00:21:04;94196.31;;;21.77;40.84
20037;BME280;10179;42.640;23.312;2023-10-09T00:23:39;94193.91;;;21.75;40.81
20037;BME280;10179;42.640;23.312;2023-10-09T00:26:05;94197.94;;;21.73;40.87
20037;BME280;10179;42.640;23.312;2023-10-09T00:28:37;94201.19;;;21.70;40.88
20037;BME280;10179;42.640;23.312;2023-10-09T00:31:06;94181.47;;;21.60;40.87
20037;BME280;10179;42.640;23.312;2023-10-09T00:33:33;94190.81;;;21.63;40.87
20037;BME280;10179;42.640;23.312;2023-10-09T00:36:22;94182.50;;;21.64;40.76
20037;BME280;10179;42.640;23.312;2023-10-09T00:38:54;94189.56;;;21.55;40.58
20037;BME280;10179;42.640;23.312;2023-10-09T00:41:19;94165.59;;;21.40;40.95
20037;BME280;10179;42.640;23.312;2023-10-09T00:43:46;94189.88;;;21.49;40.70
20037;BME280;10179;42.640;23.312;2023-10-09T00:46:16;94191.22;;;21.46;40.87
20037;BME280;10179;42.640;23.312;2023-10-09T00:48:56;94188.50;;;21.51;41.08
20037;BME280;10179;42.640;23.312;2023-10-09T00:51:23;94159.56;;;21.19;40.95
20037;BME280;10179;42.640;23.312;2023-10-09T00:53:52;94212.63;;;21.41;40.85
20037;BME280;10179;42.640;23.312;2023-10-09T00:56:22;94219.03;;;21.40;40.75
20037;BME280;10179;42.640;23.312;2023-10-09T00:58:50;94211.06;;;21.35;40.79
20037;BME280;10179;42.640;23.312;2023-10-09T01:01:39;94141.66;;;20.80;40.95
20037;BME280;10179;42.640;23.312;2023-10-09T01:04:06;94200.19;;;21.21;41.26
20037;BME280;10179;42.640;23.312;2023-10-09T01:06:41;94193.06;;;21.06;40.72
20037;BME280;10179;42.640;23.312;2023-10-09T01:09:14;94218.09;;;21.15;40.85
20037;BME280;10179;42.640;23.312;2023-10-09T01:11:43;94179.81;;;20.86;41.24
20037;BME280;10179;42.640;23.312;2023-10-09T01:14:24;94237.41;;;21.07;40.77
20037;BME280;10179;42.640;23.312;2023-10-09T01:16:49;94217.69;;;20.93;40.90
20037;BME280;10179;42.640;23.312;2023-10-09T01:19:19;94210.25;;;20.90;41.08
20037;BME280;10179;42.640;23.312;2023-10-09T01:21:51;94231.06;;;20.93;41.19
20037;BME280;10179;42.640;23.312;2023-10-09T01:24:16;94225.22;;;20.86;40.79
20037;BME280;10179;42.640;23.312;2023-10-09T01:26:45;94149.69;;;20.15;41.07
20037;BME280;10179;42.640;23.312;2023-10-09T01:29:16;94131.81;;;20.00;41.07
20037;BME280;10179;42.640;23.312;2023-10-09T01:31:52;94253.03;;;20.75;41.00
20037;BME280;10179;42.640;23.312;2023-10-09T01:36:52;94192.28;;;20.31;40.91
20037;BME280;10179;42.640;23.312;2023-10-09T01:39:25;94224.78;;;20.48;40.59
20037;BME280;10179;42.640;23.312;2023-10-09T01:42:08;94238.72;;;20.40;40.93
20037;BME280;10179;42.640;23.312;2023-10-09T01:44:35;94238.72;;;20.30;41.02
20037;BME280;10179;42.640;23.312;2023-10-09T01:47:06;94255.78;;;20.29;41.15
20037;BME280;10179;42.640;23.312;2023-10-09T01:49:39;94294.75;;;20.19;40.79
20037;BME280;10179;42.640;23.312;2023-10-09T01:52:11;94275.31;;;20.09;40.90
20037;BME280;10179;42.640;23.312;2023-10-09T01:54:40;94293.72;;;20.05;41.23
20037;BME280;10179;42.640;23.312;2023-10-09T01:57:08;94147.91;;;19.14;41.11
20037;BME280;10179;42.640;23.312;2023-10-09T01:59:44;94260.91;;;19.84;41.35
20037;BME280;10179;42.640;23.312;2023-10-09T02:02:13;94259.03;;;19.79;41.42
20037;BME280;10179;42.640;23.312;2023-10-09T02:04:57;94279.31;;;19.91;41.53
20037;BME280;10179;42.640;23.312;2023-10-09T02:07:37;94252.91;;;19.64;41.50
20037;BME280;10179;42.640;23.312;2023-10-09T02:10:21;94284.66;;;19.81;41.46
20037;BME280;10179;42.640;23.312;2023-10-09T02:12:50;94288.34;;;19.79;41.46
20037;BME280;10179;42.640;23.312;2023-10-09T02:15:26;94261.94;;;19.58;41.56
20037;BME280;10179;42.640;23.312;2023-10-09T02:18:14;94301.69;;;19.74;41.40
20037;BME280;10179;42.640;23.312;2023-10-09T02:20:47;94312.09;;;19.71;41.15
20037;BME280;10179;42.640;23.312;2023-10-09T02:23:34;94272.31;;;19.39;41.13
20037;BME280;10179;42.640;23.312;2023-10-09T02:26:26;94219.75;;;18.98;40.64
20037;BME280;10179;42.640;23.312;2023-10-09T02:28:57;94301.38;;;19.50;40.66
20037;BME280;10179;42.640;23.312;2023-10-09T02:31:34;94317.91;;;19.58;40.71
20037;BME280;10179;42.640;23.312;2023-10-09T02:34:06;94309.09;;;19.42;40.69
20037;BME280;10179;42.640;23.312;2023-10-09T02:36:33;94322.94;;;19.44;41.03
20037;BME280;10179;42.640;23.312;2023-10-09T02:39:11;94306.94;;;19.39;40.57
20037;BME280;10179;42.640;23.312;2023-10-09T02:41:49;94297.84;;;19.24;40.82
20037;BME280;10179;42.640;23.312;2023-10-09T02:44:15;94293.28;;;19.15;40.74
20037;BME280;10179;42.640;23.312;2023-10-09T02:46:42;94319.69;;;19.21;40.81
20037;BME280;10179;42.640;23.312;2023-10-09T02:49:10;93961.78;;;16.89;40.71
20037;BME280;10179;42.640;23.312;2023-10-09T02:51:41;94331.88;;;19.12;40.87
20037;BME280;10179;42.640;23.312;2023-10-09T02:54:12;94345.19;;;19.07;40.82
20037;BME280;10179;42.640;23.312;2023-10-09T02:56:48;94367.00;;;19.04;40.98
20037;BME280;10179;42.640;23.312;2023-10-09T02:59:20;94364.03;;;18.95;41.08
20037;BME280;10179;42.640;23.312;2023-10-09T03:01:47;94353.63;;;18.89;41.11
20037;BME280;10179;42.640;23.312;2023-10-09T03:04:12;94308.16;;;18.53;41.27
20037;BME280;10179;42.640;23.312;2023-10-09T03:06:40;94329.22;;;18.59;41.21
20037;BME280;10179;42.640;23.312;2023-10-09T03:09:16;94311.34;;;18.50;41.84
20037;BME280;10179;42.640;23.312;2023-10-09T03:11:48;94339.63;;;18.66;41.74
20037;BME280;10179;42.640;23.312;2023-10-09T03:14:21;94339.06;;;18.59;41.83
20037;BME280;10179;42.640;23.312;2023-10-09T03:16:50;94340.63;;;18.50;41.87
20037;BME280;10179;42.640;23.312;2023-10-09T03:19:16;94262.50;;;17.86;42.10
20037;BME280;10179;42.640;23.312;2023-10-09T03:21:42;94354.59;;;18.35;42.41
20037;BME280;10179;42.640;23.312;2023-10-09T03:24:07;94337.19;;;18.17;42.30
20037;BME280;10179;42.640;23.312;2023-10-09T03:26:33;94345.63;;;18.09;42.48
20037;BME280;10179;42.640;23.312;2023-10-09T03:28:59;94333.25;;;17.87;42.34
20037;BME280;10179;42.640;23.312;2023-10-09T03:31:30;94382.28;;;18.07;42.94
20037;BME280;10179;42.640;23.312;2023-10-09T03:33:56;94383.88;;;18.03;42.89
20037;BME280;10179;42.640;23.312;2023-10-09T03:36:21;94346.59;;;17.44;43.11
20037;BME280;10179;42.640;23.312;2023-10-09T03:38:47;94387.78;;;17.95;42.98
20037;BME280;10179;42.640;23.312;2023-10-09T03:41:12;94360.25;;;17.79;43.17
20037;BME280;10179;42.640;23.312;2023-10-09T03:43:39;94380.50;;;17.85;42.91
20037;BME280;10179;42.640;23.312;2023-10-09T03:46:09;94381.00;;;17.82;43.09
20037;BME280;10179;42.640;23.312;2023-10-09T03:48:50;94378.22;;;17.72;42.84
20037;BME280;10179;42.640;23.312;2023-10-09T03:51:21;94391.72;;;17.65;43.04
20037;BME280;10179;42.640;23.312;2023-10-09T03:53:51;94397.28;;;17.64;43.09
20037;BME280;10179;42.640;23.312;2023-10-09T03:56:19;94396.75;;;17.62;43.12
20037;BME280;10179;42.640;23.312;2023-10-09T03:58:48;94390.63;;;17.39;42.81
20037;BME280;10179;42.640;23.312;2023-10-09T04:01:16;94403.28;;;17.54;43.21
20037;BME280;10179;42.640;23.312;2023-10-09T04:03:48;94402.19;;;17.50;42.96
20037;BME280;10179;42.640;23.312;2023-10-09T04:06:14;94402.19;;;17.50;43.02
20037;BME280;10179;42.640;23.312;2023-10-09T04:08:44;94378.13;;;17.35;42.94
20037;BME280;10179;42.640;23.312;2023-10-09T04:11:14;94397.06;;;17.44;42.65
20037;BME280;10179;42.640;23.312;2023-10-09T04:13:44;94403.41;;;17.42;42.90
20037;BME280;10179;42.640;23.312;2023-10-09T04:16:12;94279.91;;;16.69;42.77
20037;BME280;10179;42.640;23.312;2023-10-09T04:18:56;94283.59;;;16.68;42.49
20037;BME280;10179;42.640;23.312;2023-10-09T04:21:23;94367.59;;;17.23;42.63
20037;BME280;10179;42.640;23.312;2023-10-09T04:24:02;94393.75;;;17.31;42.07
20037;BME280;10179;42.640;23.312;2023-10-09T04:26:43;94397.13;;;17.27;42.10
20037;BME280;10179;42.640;23.312;2023-10-09T04:29:13;94397.88;;;17.22;41.53
20037;BME280;10179;42.640;23.312;2023-10-09T04:32:02;94399.41;;;17.18;41.59
20037;BME280;10179;42.640;23.312;2023-10-09T04:34:28;94387.56;;;17.04;41.57
20037;BME280;10179;42.640;23.312;2023-10-09T04:37:00;94397.81;;;17.17;41.07
20037;BME280;10179;42.640;23.312;2023-10-09T04:39:29;94406.81;;;17.16;40.83
20037;BME280;10179;42.640;23.312;2023-10-09T04:41:55;94397.75;;;17.12;40.64
20037;BME280;10179;42.640;23.312;2023-10-09T04:44:39;94331.84;;;16.65;40.24
20037;BME280;10179;42.640;23.312;2023-10-09T04:47:04;94356.50;;;16.82;39.87
20037;BME280;10179;42.640;23.312;2023-10-09T04:49:38;94396.19;;;17.16;38.98
20037;BME280;10179;42.640;23.312;2023-10-09T04:52:29;94380.13;;;17.06;38.51
20037;BME280;10179;42.640;23.312;2023-10-09T04:54:58;94402.06;;;17.18;38.24
20037;BME280;10179;42.640;23.312;2023-10-09T04:57:42;94396.41;;;17.09;38.34
20037;BME280;10179;42.640;23.312;2023-10-09T05:00:09;94404.22;;;17.21;38.15
20037;BME280;10179;42.640;23.312;2023-10-09T05:02:53;94411.13;;;17.22;37.44
20037;BME280;10179;42.640;23.312;2023-10-09T05:05:23;94407.94;;;17.20;37.21
20037;BME280;10179;42.640;23.312;2023-10-09T05:08:13;94413.25;;;17.20;36.10
20037;BME280;10179;42.640;23.312;2023-10-09T05:11:01;94420.16;;;17.21;36.50
20037;BME280;10179;42.640;23.312;2023-10-09T05:13:32;94422.25;;;17.19;36.37
20037;BME280;10179;42.640;23.312;2023-10-09T05:16:03;94436.59;;;17.18;36.61
20037;BME280;10179;42.640;23.312;2023-10-09T05:18:29;94426.75;;;17.18;36.55
20037;BME280;10179;42.640;23.312;2023-10-09T05:21:05;94435.03;;;17.22;36.16
20037;BME280;10179;42.640;23.312;2023-10-09T05:23:51;94410.53;;;17.15;36.16
20037;BME280;10179;42.640;23.312;2023-10-09T05:26:35;94429.06;;;17.32;35.59
20037;BME280;10179;42.640;23.312;2023-10-09T05:29:13;94438.44;;;17.39;35.46
20037;BME280;10179;42.640;23.312;2023-10-09T05:31:51;94429.41;;;17.40;35.51
20037;BME280;10179;42.640;23.312;2023-10-09T05:34:37;94349.72;;;16.91;35.37
20037;BME280;10179;42.640;23.312;2023-10-09T05:37:25;94465.69;;;17.74;35.03
20037;BME280;10179;42.640;23.312;2023-10-09T05:39:52;94457.38;;;17.92;34.98
20037;BME280;10179;42.640;23.312;2023-10-09T05:42:30;94459.34;;;18.02;34.57
20037;BME280;10179;42.640;23.312;2023-10-09T05:45:15;94466.59;;;18.39;34.02
20037;BME280;10179;42.640;23.312;2023-10-09T05:48:00;94483.34;;;18.66;33.21
20037;BME280;10179;42.640;23.312;2023-10-09T05:50:44;94456.34;;;18.84;32.71
20037;BME280;10179;42.640;23.312;2023-10-09T05:53:21;94473.22;;;19.00;32.46
20037;BME280;10179;42.640;23.312;2023-10-09T05:55:52;94480.78;;;19.14;32.17
20037;BME280;10179;42.640;23.312;2023-10-09T05:58:36;94484.88;;;19.31;31.91
20037;BME280;10179;42.640;23.312;2023-10-09T06:01:27;94492.47;;;19.55;31.30
20037;BME280;10179;42.640;23.312;2023-10-09T06:04:11;94494.44;;;19.75;30.89
20037;BME280;10179;42.640;23.312;2023-10-09T06:06:45;94499.56;;;19.97;30.54
20037;BME280;10179;42.640;23.312;2023-10-09T06:09:12;94490.00;;;20.06;30.04
20037;BME280;10179;42.640;23.312;2023-10-09T06:11:41;94497.53;;;20.35;29.49
20037;BME280;10179;42.640;23.312;2023-10-09T06:14:15;94420.09;;;19.89;29.78
20037;BME280;10179;42.640;23.312;2023-10-09T06:16:51;94512.03;;;20.64;29.38
20037;BME280;10179;42.640;23.312;2023-10-09T06:19:24;94538.44;;;20.61;29.17
20037;BME280;10179;42.640;23.312;2023-10-09T06:21:57;94532.84;;;20.98;29.03
20037;BME280;10179;42.640;23.312;2023-10-09T06:24:42;94520.56;;;21.17;28.88
20037;BME280;10179;42.640;23.312;2023-10-09T06:27:13;94525.06;;;21.37;28.45
20037;BME280;10179;42.640;23.312;2023-10-09T06:29:49;94518.66;;;21.49;28.22
20037;BME280;10179;42.640;23.312;2023-10-09T06:32:15;94504.72;;;21.57;27.86
20037;BME280;10179;42.640;23.312;2023-10-09T06:37:19;94507.50;;;21.96;26.83
20037;BME280;10179;42.640;23.312;2023-10-09T06:39:55;94514.94;;;22.20;26.79
20037;BME280;10179;42.640;23.312;2023-10-09T06:42:24;94525.41;;;22.60;26.62
20037;BME280;10179;42.640;23.312;2023-10-09T06:45:09;94514.72;;;22.95;25.71
20037;BME280;10179;42.640;23.312;2023-10-09T06:47:46;94407.06;;;22.53;25.39
20037;BME280;10179;42.640;23.312;2023-10-09T06:50:24;94508.78;;;23.32;25.14
20037;BME280;10179;42.640;23.312;2023-10-09T06:52:50;94508.66;;;23.42;25.14
20037;BME280;10179;42.640;23.312;2023-10-09T06:55:38;94501.59;;;23.51;24.86
20037;BME280;10179;42.640;23.312;2023-10-09T06:58:20;94524.34;;;23.83;24.05
20037;BME280;10179;42.640;23.312;2023-10-09T07:00:50;94523.09;;;23.99;23.79
20037;BME280;10179;42.640;23.312;2023-10-09T07:03:34;94476.03;;;23.83;23.17
20037;BME280;10179;42.640;23.312;2023-10-09T07:06:07;94511.13;;;24.11;23.27
20037;BME280;10179;42.640;23.312;2023-10-09T07:08:52;94468.28;;;23.81;23.17
20037;BME280;10179;42.640;23.312;2023-10-09T07:11:42;94510.50;;;24.19;22.89
20037;BME280;10179;42.640;23.312;2023-10-09T07:14:21;94502.06;;;24.07;22.59
20037;BME280;10179;42.640;23.312;2023-10-09T07:17:02;94520.41;;;23.99;22.86
20037;BME280;10179;42.640;23.312;2023-10-09T07:19:32;94527.56;;;23.85;23.35
20037;BME280;10179;42.640;23.312;2023-10-09T07:22:20;94352.88;;;22.67;23.10
20037;BME280;10179;42.640;23.312;2023-10-09T07:24:53;94485.38;;;23.62;23.06
20037;BME280;10179;42.640;23.312;2023-10-09T07:27:24;94512.19;;;23.91;23.02
20037;BME280;10179;42.640;23.312;2023-10-09T07:30:10;94520.03;;;23.87;23.31
20037;BME280;10179;42.640;23.312;2023-10-09T07:32:59;94524.75;;;23.95;23.29
20037;BME280;10179;42.640;23.312;2023-10-09T07:35:39;94529.59;;;23.93;22.33
20037;BME280;10179;42.640;23.312;2023-10-09T07:38:12;94523.28;;;23.84;21.99
20037;BME280;10179;42.640;23.312;2023-10-09T07:40:40;94537.19;;;23.86;22.23
20037;BME280;10179;42.640;23.312;2023-10-09T07:43:27;94518.59;;;23.66;22.19
20037;BME280;10179;42.640;23.312;2023-10-09T07:46:15;94436.75;;;22.96;22.54
20037;BME280;10179;42.640;23.312;2023-10-09T07:49:01;94534.00;;;23.31;21.84
20037;BME280;10179;42.640;23.312;2023-10-09T07:51:35;94509.28;;;22.66;22.64
20037;BME280;10179;42.640;23.312;2023-10-09T07:54:01;94414.53;;;21.73;22.97
20037;BME280;10179;42.640;23.312;2023-10-09T07:56:36;94487.16;;;22.05;24.19
20037;BME280;10179;42.640;23.312;2023-10-09T07:59:10;94545.31;;;22.39;24.53
20037;BME280;10179;42.640;23.312;2023-10-09T08:01:56;94538.91;;;22.40;24.37
20037;BME280;10179;42.640;23.312;2023-10-09T08:04:26;94535.50;;;22.29;24.23
20037;BME280;10179;42.640;23.312;2023-10-09T08:07:06;94536.06;;;22.21;23.86
20037;BME280;10179;42.640;23.312;2023-10-09T08:09:33;94536.34;;;22.20;24.05
20037;BME280;10179;42.640;23.312;2023-10-09T08:12:16;94560.94;;;22.22;23.80
20037;BME280;10179;42.640;23.312;2023-10-09T08:15:01;94542.28;;;22.01;23.62
20037;BME280;10179;42.640;23.312;2023-10-09T08:17:48;94537.00;;;21.81;23.31
20037;BME280;10179;42.640;23.312;2023-10-09T08:20:21;94534.88;;;21.78;24.14
20037;BME280;10179;42.640;23.312;2023-10-09T08:22:51;94540.75;;;21.85;24.13
20037;BME280;10179;42.640;23.312;2023-10-09T08:25:18;94533.47;;;21.96;24.69
20037;BME280;10179;42.640;23.312;2023-10-09T08:28:01;94525.69;;;22.04;24.38
20037;BME280;10179;42.640;23.312;2023-10-09T08:30:39;94524.59;;;22.05;23.81
20037;BME280;10179;42.640;23.312;2023-10-09T08:33:15;94520.84;;;22.06;23.95
20037;BME280;10179;42.640;23.312;2023-10-09T08:35:50;94471.72;;;21.87;24.06
20037;BME280;10179;42.640;23.312;2023-10-09T08:38:17;94513.25;;;22.29;24.09
20037;BME280;10179;42.640;23.312;2023-10-09T08:40:49;94505.47;;;22.37;23.69
20037;BME280;10179;42.640;23.312;2023-10-09T08:43:19;94492.84;;;22.43;23.70
20037;BME280;10179;42.640;23.312;2023-10-09T08:45:46;94491.72;;;22.49;23.71
20037;BME280;10179;42.640;23.312;2023-10-09T08:48:13;94489.09;;;22.44;23.46
20037;BME280;10179;42.640;23.312;2023-10-09T08:50:44;94484.34;;;22.36;23.71
20037;BME280;10179;42.640;23.312;2023-10-09T08:53:10;94486.50;;;22.29;23.48
20037;BME280;10179;42.640;23.312;2023-10-09T08:55:39;94487.38;;;22.19;23.41
20037;BME280;10179;42.640;23.312;2023-10-09T08:58:06;94463.88;;;22.06;23.28
20037;BME280;10179;42.640;23.312;2023-10-09T09:00:52;94428.94;;;21.82;23.75
20037;BME280;10179;42.640;23.312;2023-10-09T09:03:21;94476.44;;;22.15;23.28
20037;BME280;10179;42.640;23.312;2023-10-09T09:05:58;94374.06;;;21.40;23.02
20037;BME280;10179;42.640;23.312;2023-10-09T09:08:31;94472.25;;;21.89;23.53
20037;BME280;10179;42.640;23.312;2023-10-09T09:11:11;94475.75;;;21.79;23.23
20037;BME280;10179;42.640;23.312;2023-10-09T09:14:00;93902.97;;;17.81;23.68
20037;BME280;10179;42.640;23.312;2023-10-09T09:16:40;94488.06;;;21.75;23.67
20037;BME280;10179;42.640;23.312;2023-10-09T09:19:09;94427.81;;;21.28;23.61
20037;BME280;10179;42.640;23.312;2023-10-09T09:21:49;94500.19;;;21.62;23.96
20037;BME280;10179;42.640;23.312;2023-10-09T09:24:19;94478.31;;;21.45;24.51
20037;BME280;10179;42.640;23.312;2023-10-09T09:26:49;94477.22;;;21.41;24.50
20037;BME280;10179;42.640;23.312;2023-10-09T09:32:06;94468.16;;;21.32;24.41
20037;BME280;10179;42.640;23.312;2023-10-09T09:34:51;94480.47;;;21.38;24.21
20037;BME280;10179;42.640;23.312;2023-10-09T09:37:29;94463.34;;;21.29;24.48
20037;BME280;10179;42.640;23.312;2023-10-09T09:39:59;94452.94;;;21.22;24.49
20037;BME280;10179;42.640;23.312;2023-10-09T09:42:55;94429.44;;;21.24;24.77
20037;BME280;10179;42.640;23.312;2023-10-09T09:45:22;94459.06;;;21.43;24.67
20037;BME280;10179;42.640;23.312;2023-10-09T09:47:49;94455.34;;;21.39;24.50
20037;BME280;10179;42.640;23.312;2023-10-09T09:50:18;94437.66;;;21.33;24.83
20037;BME280;10179;42.640;23.312;2023-10-09T09:52:55;94455.78;;;21.61;24.28
20037;BME280;10179;42.640;23.312;2023-10-09T09:55:26;94456.81;;;21.65;24.00
20037;BME280;10179;42.640;23.312;2023-10-09T09:57:57;94445.38;;;21.55;23.75
20037;BME280;10179;42.640;23.312;2023-10-09T10:00:26;94442.72;;;21.50;24.02
20037;BME280;10179;42.640;23.312;2023-10-09T10:03:29;94448.06;;;21.50;24.29
20037;BME280;10179;42.640;23.312;2023-10-09T10:05:59;94431.53;;;21.42;23.63
20037;BME280;10179;42.640;23.312;2023-10-09T10:08:25;94426.44;;;21.46;24.24
20037;BME280;10179;42.640;23.312;2023-10-09T10:11:00;94422.38;;;21.54;24.20
20037;BME280;10179;42.640;23.312;2023-10-09T10:16:06;94418.13;;;21.48;23.79
20037;BME280;10179;42.640;23.312;2023-10-09T10:19:01;94410.94;;;21.43;23.67
20037;BME280;10179;42.640;23.312;2023-10-09T10:21:37;94398.38;;;21.49;23.48
20037;BME280;10179;42.640;23.312;2023-10-09T10:29:45;94392.72;;;21.55;23.69
20037;BME280;10179;42.640;23.312;2023-10-09T10:32:11;94379.91;;;21.52;23.63
20037;BME280;10179;42.640;23.312;2023-10-09T10:37:11;94366.19;;;21.64;22.99
20037;BME280;10179;42.640;23.312;2023-10-09T10:39:50;94363.72;;;21.73;22.34
20037;BME280;10179;42.640;23.312;2023-10-09T10:42:15;94360.00;;;21.68;23.01
20037;BME280;10179;42.640;23.312;2023-10-09T10:45:03;94364.31;;;21.70;23.53
20037;BME280;10179;42.640;23.312;2023-10-09T10:47:48;94357.25;;;21.84;22.98
20037;BME280;10179;42.640;23.312;2023-10-09T10:50:17;94348.88;;;21.96;23.21
20037;BME280;10179;42.640;23.312;2023-10-09T10:53:08;94343.16;;;22.12;22.96
20037;BME280;10179;42.640;23.312;2023-10-09T10:55:59;94332.44;;;22.12;22.89
20037;BME280;10179;42.640;23.312;2023-10-09T10:58:37;94346.34;;;22.20;23.16
20037;BME280;10179;42.640;23.312;2023-10-09T11:01:03;94336.91;;;22.27;22.96
20037;BME280;10179;42.640;23.312;2023-10-09T11:03:37;94325.91;;;22.29;22.62
20037;BME280;10179;42.640;23.312;2023-10-09T11:06:28;94323.19;;;22.34;22.26
20037;BME280;10179;42.640;23.312;2023-10-09T11:09:09;94315.78;;;22.26;22.64
20037;BME280;10179;42.640;23.312;2023-10-09T11:11:42;94302.47;;;22.10;22.52
20037;BME280;10179;42.640;23.312;2023-10-09T11:14:11;94294.22;;;22.07;22.91
20037;BME280;10179;42.640;23.312;2023-10-09T11:16:40;94312.00;;;22.27;22.99
20037;BME280;10179;42.640;23.312;2023-10-09T11:19:13;94308.72;;;22.35;23.26
20037;BME280;10179;42.640;23.312;2023-10-09T11:21:57;94302.81;;;22.38;23.05
20037;BME280;10179;42.640;23.312;2023-10-09T11:24:28;94306.00;;;22.40;23.00
20037;BME280;10179;42.640;23.312;2023-10-09T11:27:00;94233.09;;;21.90;23.15
20037;BME280;10179;42.640;23.312;2023-10-09T11:29:35;94235.97;;;21.99;23.33
20037;BME280;10179;42.640;23.312;2023-10-09T11:32:17;94279.09;;;22.26;22.92
20037;BME280;10179;42.640;23.312;2023-10-09T11:34:48;94280.47;;;22.24;23.17
20037;BME280;10179;42.640;23.312;2023-10-09T11:37:22;94277.56;;;22.20;23.13
20037;BME280;10179;42.640;23.312;2023-10-09T11:39:53;94266.06;;;22.20;23.04
20037;BME280;10179;42.640;23.312;2023-10-09T11:42:20;94288.94;;;22.36;23.17
20037;BME280;10179;42.640;23.312;2023-10-09T11:45:22;94284.69;;;22.30;23.07
20037;BME280;10179;42.640;23.312;2023-10-09T11:47:51;94254.50;;;22.24;22.91
20037;BME280;10179;42.640;23.312;2023-10-09T11:50:39;94275.41;;;22.46;23.30
20037;BME280;10179;42.640;23.312;2023-10-09T11:53:17;94239.78;;;22.22;22.78
20037;BME280;10179;42.640;23.312;2023-10-09T11:55:50;94266.31;;;22.47;23.06
20037;BME280;10179;42.640;23.312;2023-10-09T11:58:22;94247.22;;;22.30;22.17
20037;BME280;10179;42.640;23.312;2023-10-09T12:00:58;94240.91;;;22.69;22.17
20037;BME280;10179;42.640;23.312;2023-10-09T12:03:32;94242.72;;;22.73;22.14
20037;BME280;10179;42.640;23.312;2023-10-09T12:06:06;94243.47;;;22.79;21.59
20037;BME280;10179;42.640;23.312;2023-10-09T12:08:39;94198.34;;;22.67;21.34
20037;BME280;10179;42.640;23.312;2023-10-09T12:11:07;94100.75;;;22.11;21.15
20037;BME280;10179;42.640;23.312;2023-10-09T12:13:38;94206.88;;;22.93;20.80
20037;BME280;10179;42.640;23.312;2023-10-09T12:16:04;93974.75;;;21.41;20.72
20037;BME280;10179;42.640;23.312;2023-10-09T12:18:33;94152.59;;;22.63;21.07
20037;BME280;10179;42.640;23.312;2023-10-09T12:21:00;94219.50;;;23.12;20.38
20037;BME280;10179;42.640;23.312;2023-10-09T12:23:29;94193.41;;;22.98;20.55
20037;BME280;10179;42.640;23.312;2023-10-09T12:26:03;94215.59;;;23.23;19.10
20037;BME280;10179;42.640;23.312;2023-10-09T12:28:29;94202.41;;;23.07;19.29
20037;BME280;10179;42.640;23.312;2023-10-09T12:30:58;94193.28;;;23.08;19.35
20037;BME280;10179;42.640;23.312;2023-10-09T12:33:27;94195.31;;;23.17;19.34
20037;BME280;10179;42.640;23.312;2023-10-09T12:35:54;94195.75;;;23.24;19.08
20037;BME280;10179;42.640;23.312;2023-10-09T12:38:28;94199.78;;;23.40;18.40
20037;BME280;10179;42.640;23.312;2023-10-09T12:41:06;94205.59;;;23.47;18.21
20037;BME280;10179;42.640;23.312;2023-10-09T12:43:52;94183.66;;;23.45;18.11
20037;BME280;10179;42.640;23.312;2023-10-09T12:46:18;94190.06;;;23.44;17.59
20037;BME280;10179;42.640;23.312;2023-10-09T12:48:48;94122.03;;;23.07;17.64
20037;BME280;10179;42.640;23.312;2023-10-09T12:51:15;94179.34;;;23.44;17.65
20037;BME280;10179;42.640;23.312;2023-10-09T12:53:44;94180.44;;;23.43;17.56
20037;BME280;10179;42.640;23.312;2023-10-09T12:56:10;94170.22;;;23.45;17.70
20037;BME280;10179;42.640;23.312;2023-10-09T12:58:38;94165.88;;;23.49;17.50
20037;BME280;10179;42.640;23.312;2023-10-09T13:01:04;94090.22;;;23.01;17.66
20037;BME280;10179;42.640;23.312;2023-10-09T13:03:37;94092.44;;;23.13;17.60
20037;BME280;10179;42.640;23.312;2023-10-09T13:06:05;94156.25;;;23.62;17.57
20037;BME280;10179;42.640;23.312;2023-10-09T13:08:37;94159.16;;;23.66;17.48
20037;BME280;10179;42.640;23.312;2023-10-09T13:11:07;94159.97;;;23.66;17.34
20037;BME280;10179;42.640;23.312;2023-10-09T13:13:37;94108.16;;;23.38;17.01
20037;BME280;10179;42.640;23.312;2023-10-09T13:16:16;94135.13;;;23.61;16.85
20037;BME280;10179;42.640;23.312;2023-10-09T13:18:58;94146.69;;;23.75;17.13
20037;BME280;10179;42.640;23.312;2023-10-09T13:21:35;94139.97;;;23.77;17.07
20037;BME280;10179;42.640;23.312;2023-10-09T13:24:03;94137.47;;;23.81;16.84
20037;BME280;10179;42.640;23.312;2023-10-09T13:26:28;94115.09;;;23.72;17.01
20037;BME280;10179;42.640;23.312;2023-10-09T13:28:56;94136.91;;;23.84;16.68
20037;BME280;10179;42.640;23.312;2023-10-09T13:31:23;94137.38;;;23.86;17.01
20037;BME280;10179;42.640;23.312;2023-10-09T13:33:54;94111.81;;;23.75;16.38
20037;BME280;10179;42.640;23.312;2023-10-09T13:36:23;94122.88;;;23.87;16.46
20037;BME280;10179;42.640;23.312;2023-10-09T13:38:56;94038.50;;;23.33;16.51
20037;BME280;10179;42.640;23.312;2023-10-09T13:41:22;94124.47;;;23.88;16.69
20037;BME280;10179;42.640;23.312;2023-10-09T13:43:51;94095.16;;;23.78;16.53